Time;durP1;ratioP1;P1;durP2;ratioP2;P2;SDS_P1;SDS_P2;PMS_P1;PMS_P2;Temp;Humidity;BMP_temperature;BMP_pressure;BME280_temperature;BME280_humidity;BME280_pressure;Samples;Min_cycle;Max_cycle;Signal;HPM_P1;HPM_P2
2022/03/13 00:01:59;;;;;;;30.43;19.10;;;4.50;81.60;;;;;;5063826;28;20752;-45
2022/03/13 00:04:25;;;;;;;31.20;17.03;;;4.50;81.50;;;;;;5064648;28;20569;-46
2022/03/13 00:06:52;;;;;;;34.53;17.33;;;4.10;80.50;;;;;;5063525;28;20865;-46
2022/03/13 00:09:22;;;;;;;26.63;15.90;;;4.10;81.00;;;;;;5059839;28;20554;-46
2022/03/13 00:11:52;;;;;;;49.60;17.50;;;4.10;81.50;;;;;;5062817;28;20929;-46
2022/03/13 00:14:19;;;;;;;27.97;15.17;;;4.10;81.80;;;;;;5062179;28;20508;-46
2022/03/13 00:16:49;;;;;;;21.63;13.50;;;4.00;80.90;;;;;;5063835;28;21052;-45
2022/03/13 00:19:19;;;;;;;29.07;13.30;;;3.90;81.40;;;;;;5064299;28;20475;-45
2022/03/13 00:21:51;;;;;;;23.97;14.83;;;3.90;81.50;;;;;;5061920;28;20473;-46
2022/03/13 00:24:20;;;;;;;28.23;15.77;;;;;;;;;;5068183;28;20516;-45
2022/03/13 00:26:49;;;;;;;35.80;20.60;;;4.00;81.40;;;;;;5065937;28;20851;-45
2022/03/13 00:29:15;;;;;;;29.87;17.87;;;4.10;81.30;;;;;;5061703;28;20492;-46
2022/03/13 00:31:42;;;;;;;35.53;19.97;;;4.00;81.50;;;;;;5060628;28;21060;-46
2022/03/13 00:34:09;;;;;;;38.90;20.10;;;4.00;81.70;;;;;;5067443;28;20652;-46
2022/03/13 00:36:35;;;;;;;26.60;16.37;;;4.00;81.80;;;;;;5066289;28;20953;-46
2022/03/13 00:39:02;;;;;;;34.30;17.43;;;4.00;82.40;;;;;;5069793;28;20485;-45
2022/03/13 00:41:29;;;;;;;23.07;14.30;;;3.90;81.90;;;;;;5067544;28;20493;-46
2022/03/13 00:43:57;;;;;;;23.07;13.43;;;3.80;81.50;;;;;;5066304;28;20485;-46
2022/03/13 00:46:23;;;;;;;27.73;16.27;;;3.80;81.20;;;;;;5065242;28;20499;-46
2022/03/13 00:48:50;;;;;;;26.00;16.10;;;3.70;81.90;;;;;;5060697;28;20492;-46
2022/03/13 00:51:17;;;;;;;26.77;13.60;;;3.60;82.40;;;;;;5067758;28;20479;-45
2022/03/13 00:53:44;;;;;;;24.40;15.10;;;3.50;82.40;;;;;;5066297;28;20488;-45
2022/03/13 00:56:11;;;;;;;32.93;16.30;;;3.50;82.70;;;;;;5065612;28;20971;-46
2022/03/13 00:58:40;;;;;;;36.70;19.23;;;3.50;83.00;;;;;;5065343;28;21005;-50
2022/03/13 01:01:08;;;;;;;38.13;17.97;;;3.50;82.70;;;;;;5064985;28;21107;-46
2022/03/13 01:03:49;;;;;;;28.73;16.77;;;3.50;82.10;;;;;;5062402;28;20481;-45
2022/03/13 01:06:16;;;;;;;24.67;15.57;;;3.50;82.00;;;;;;5055296;28;20474;-46
2022/03/13 01:08:44;;;;;;;31.30;16.73;;;3.50;82.10;;;;;;5060891;28;20487;-45
2022/03/13 01:11:12;;;;;;;20.03;13.53;;;3.50;81.70;;;;;;5064231;28;20476;-45
2022/03/13 01:13:39;;;;;;;27.57;15.00;;;;;;;;;;5067058;28;20480;-45
2022/03/13 01:16:15;;;;;;;26.70;15.50;;;3.50;81.60;;;;;;5037105;28;20485;-45
2022/03/13 01:18:45;;;;;;;26.20;16.33;;;3.50;81.70;;;;;;5049613;28;20484;-46
2022/03/13 01:21:13;;;;;;;40.03;19.30;;;3.50;81.80;;;;;;5065615;28;20476;-46
2022/03/13 01:23:40;;;;;;;25.73;16.67;;;3.50;81.50;;;;;;5066520;28;20488;-45
2022/03/13 01:26:38;;;;;;;28.70;16.67;;;3.50;81.60;;;;;;5066037;28;20474;-45
2022/03/13 01:29:08;;;;;;;31.60;17.57;;;3.30;81.20;;;;;;5062374;28;21072;-45
2022/03/13 01:31:38;;;;;;;27.90;16.83;;;3.10;82.40;;;;;;5066855;28;20888;-46
2022/03/13 01:34:07;;;;;;;29.93;17.77;;;3.10;83.10;;;;;;5060797;28;20479;-45
2022/03/13 01:36:34;;;;;;;34.70;19.90;;;3.10;83.30;;;;;;5063828;28;20509;-45
2022/03/13 01:39:01;;;;;;;48.43;22.03;;;3.20;83.90;;;;;;5060677;28;20509;-45
2022/03/13 01:41:29;;;;;;;34.00;19.07;;;3.20;84.20;;;;;;5066040;28;20497;-45
2022/03/13 01:43:56;;;;;;;33.90;20.50;;;3.20;84.50;;;;;;5064627;28;20467;-45
2022/03/13 01:46:23;;;;;;;42.17;19.93;;;3.40;84.60;;;;;;5062563;28;20640;-45
2022/03/13 01:48:56;;;;;;;32.23;18.43;;;3.40;84.60;;;;;;5054794;28;20473;-46
2022/03/13 01:51:23;;;;;;;37.73;20.00;;;3.40;84.30;;;;;;5064299;28;20480;-45
2022/03/13 01:53:52;;;;;;;40.10;18.20;;;3.50;84.30;;;;;;5052022;28;20544;-46
2022/03/13 01:56:20;;;;;;;31.07;19.80;;;3.50;84.80;;;;;;5058290;28;20478;-45
2022/03/13 01:58:50;;;;;;;30.10;18.23;;;3.60;85.70;;;;;;5047925;28;20475;-46
2022/03/13 02:01:17;;;;;;;40.70;21.53;;;3.70;86.30;;;;;;5076247;28;20528;-46
2022/03/13 02:03:44;;;;;;;27.03;18.07;;;3.80;86.30;;;;;;5061792;28;20482;-46
2022/03/13 02:06:12;;;;;;;38.97;22.50;;;3.90;86.70;;;;;;5034831;28;20539;-45
2022/03/13 02:08:40;;;;;;;29.30;18.47;;;3.90;86.40;;;;;;5058191;28;22177;-46
2022/03/13 02:11:06;;;;;;;31.67;19.43;;;4.00;86.60;;;;;;5062294;28;21087;-45
2022/03/13 02:13:34;;;;;;;29.97;17.20;;;3.80;85.20;;;;;;5061174;28;20730;-46
2022/03/13 02:16:01;;;;;;;31.73;18.90;;;3.80;86.20;;;;;;5063840;28;20941;-45
2022/03/13 02:18:28;;;;;;;39.37;21.10;;;3.60;86.90;;;;;;5059257;28;20489;-46
2022/03/13 02:20:55;;;;;;;39.27;21.13;;;3.60;87.50;;;;;;5065385;28;20483;-45
2022/03/13 02:23:24;;;;;;;35.90;21.50;;;3.60;87.40;;;;;;5060714;28;20470;-46
2022/03/13 02:25:53;;;;;;;35.13;20.47;;;3.70;87.50;;;;;;5059241;28;21016;-46
2022/03/13 02:28:22;;;;;;;33.73;21.53;;;3.90;86.90;;;;;;5061887;28;20473;-46
2022/03/13 02:30:50;;;;;;;33.33;20.33;;;3.90;86.20;;;;;;5057441;28;21010;-46
2022/03/13 02:33:19;;;;;;;31.17;19.87;;;4.10;85.70;;;;;;5063073;28;20596;-46
2022/03/13 02:35:52;;;;;;;38.33;19.60;;;4.20;85.30;;;;;;5032751;28;20471;-46
2022/03/13 02:38:19;;;;;;;31.73;17.67;;;4.20;85.70;;;;;;5063653;28;20471;-46
2022/03/13 02:40:47;;;;;;;29.87;18.97;;;4.20;85.30;;;;;;5058045;28;20547;-46
2022/03/13 02:43:14;;;;;;;35.13;20.37;;;4.40;85.00;;;;;;5060806;28;20814;-45
2022/03/13 02:45:41;;;;;;;37.80;19.57;;;4.40;84.80;;;;;;5062187;28;20477;-46
2022/03/13 02:48:09;;;;;;;31.40;19.10;;;4.50;84.70;;;;;;5058664;28;20490;-45
2022/03/13 02:50:37;;;;;;;38.53;20.13;;;4.50;84.40;;;;;;5055522;28;20500;-46
2022/03/13 02:53:04;;;;;;;32.07;19.70;;;4.60;84.30;;;;;;5060431;28;21393;-46
2022/03/13 02:55:31;;;;;;;37.57;20.13;;;4.60;84.10;;;;;;5058135;28;20502;-45
2022/03/13 02:58:00;;;;;;;30.80;18.90;;;4.70;84.20;;;;;;5057544;28;20887;-46
2022/03/13 03:00:43;;;;;;;38.47;19.23;;;4.70;84.10;;;;;;5059082;28;20491;-46
2022/03/13 03:03:10;;;;;;;39.53;20.17;;;4.70;84.00;;;;;;5058328;28;20562;-46
2022/03/13 03:05:37;;;;;;;38.87;19.93;;;4.70;84.40;;;;;;5055069;28;20517;-46
2022/03/13 03:08:05;;;;;;;30.63;18.20;;;4.70;84.50;;;;;;5060487;28;20499;-45
2022/03/13 03:10:34;;;;;;;38.17;20.00;;;4.60;84.60;;;;;;5059099;28;20566;-46
2022/03/13 03:13:02;;;;;;;33.07;19.10;;;4.60;84.30;;;;;;5061391;28;20536;-46
2022/03/13 03:15:28;;;;;;;32.20;17.10;;;4.50;84.70;;;;;;5061565;28;20490;-46
2022/03/13 03:17:55;;;;;;;29.83;18.00;;;4.50;84.80;;;;;;5060240;28;20488;-46
2022/03/13 03:20:22;;;;;;;40.80;20.27;;;4.30;85.10;;;;;;5049082;28;20544;-48
2022/03/13 03:22:52;;;;;;;33.53;19.30;;;4.30;85.80;;;;;;5075580;28;20477;-46
2022/03/13 03:25:22;;;;;;;34.37;21.77;;;4.30;85.40;;;;;;5060706;28;20486;-47
2022/03/13 03:27:49;;;;;;;37.77;19.77;;;4.40;85.10;;;;;;5032170;28;20994;-46
2022/03/13 03:30:20;;;;;;;45.43;19.10;;;4.40;84.60;;;;;;5056623;28;20482;-46
2022/03/13 03:32:46;;;;;;;29.80;18.30;;;4.50;84.40;;;;;;5063923;28;20570;-46
2022/03/13 03:35:13;;;;;;;36.23;20.10;;;4.50;84.60;;;;;;5060438;28;20537;-46
2022/03/13 03:37:40;;;;;;;43.83;19.93;;;4.50;84.40;;;;;;5060134;28;20486;-46
2022/03/13 03:40:08;;;;;;;33.77;20.67;;;4.50;84.40;;;;;;5058974;28;20867;-46
2022/03/13 03:42:36;;;;;;;33.67;19.87;;;4.40;84.90;;;;;;5061369;28;20483;-47
2022/03/13 03:45:03;;;;;;;48.13;20.27;;;4.40;84.60;;;;;;5061428;28;20484;-46
2022/03/13 03:47:31;;;;;;;31.07;18.20;;;4.30;85.00;;;;;;5063922;28;20472;-47
2022/03/13 03:49:58;;;;;;;35.03;18.33;;;4.30;85.80;;;;;;5062045;28;20493;-47
2022/03/13 03:52:25;;;;;;;42.43;20.93;;;4.10;86.30;;;;;;5063884;28;20531;-46
2022/03/13 03:54:51;;;;;;;31.63;19.50;;;4.10;86.30;;;;;;5062855;28;20556;-48
2022/03/13 03:57:18;;;;;;;35.57;20.40;;;4.10;85.90;;;;;;5063568;28;20559;-46
2022/03/13 03:59:45;;;;;;;36.97;19.90;;;4.20;85.20;;;;;;5062194;28;20490;-46
2022/03/13 04:02:12;;;;;;;36.40;20.07;;;4.30;85.20;;;;;;5064859;28;20479;-46
2022/03/13 04:04:41;;;;;;;42.73;19.83;;;4.30;85.30;;;;;;5063563;28;20481;-46
2022/03/13 04:07:07;;;;;;;40.50;20.43;;;4.30;85.40;;;;;;5052954;28;20478;-46
2022/03/13 04:09:34;;;;;;;29.10;18.03;;;4.30;85.40;;;;;;5060132;28;20529;-46
2022/03/13 04:12:05;;;;;;;33.37;18.17;;;4.30;85.60;;;;;;5056988;28;20493;-47
2022/03/13 04:14:32;;;;;;;34.20;18.33;;;4.30;85.90;;;;;;5062009;28;20478;-46
2022/03/13 04:16:58;;;;;;;34.33;21.13;;;4.40;85.70;;;;;;5060746;28;20478;-47
2022/03/13 04:19:27;;;;;;;28.73;18.33;;;4.40;85.50;;;;;;5060717;28;20486;-46
2022/03/13 04:21:55;;;;;;;32.00;17.87;;;4.40;86.30;;;;;;5032888;28;20486;-47
2022/03/13 04:24:22;;;;;;;31.47;18.40;;;4.40;86.20;;;;;;5059420;28;20576;-46
2022/03/13 04:26:49;;;;;;;33.30;18.97;;;4.50;85.90;;;;;;5057932;28;21574;-47
2022/03/13 04:29:17;;;;;;;39.83;17.87;;;4.50;86.10;;;;;;5050585;28;20489;-47
2022/03/13 04:31:44;;;;;;;29.70;18.53;;;4.50;86.20;;;;;;5064100;28;20482;-47
2022/03/13 04:34:12;;;;;;;25.70;17.77;;;4.60;85.90;;;;;;5061686;28;20491;-47
2022/03/13 04:36:39;;;;;;;30.00;19.53;;;4.60;85.90;;;;;;5059637;28;20495;-47
2022/03/13 04:39:08;;;;;;;37.10;19.00;;;4.60;85.80;;;;;;5052202;28;21044;-53
2022/03/13 04:41:37;;;;;;;31.20;16.93;;;4.70;85.70;;;;;;5073674;28;20483;-47
2022/03/13 04:44:05;;;;;;;28.43;17.70;;;4.80;85.80;;;;;;5061377;28;20543;-47
2022/03/13 04:46:32;;;;;;;30.40;18.77;;;4.80;85.70;;;;;;5060933;28;21344;-47
2022/03/13 04:48:59;;;;;;;28.53;18.20;;;4.70;85.80;;;;;;5061227;28;20471;-47
2022/03/13 04:51:26;;;;;;;28.87;20.00;;;4.50;86.00;;;;;;5063246;28;20508;-47
2022/03/13 04:53:53;;;;;;;35.20;20.40;;;4.40;86.80;;;;;;5061195;28;20479;-47
2022/03/13 04:56:21;;;;;;;35.50;18.23;;;4.40;87.60;;;;;;5060315;28;20510;-47
2022/03/13 04:58:48;;;;;;;29.23;17.87;;;4.30;87.80;;;;;;5059328;28;20490;-47
2022/03/13 05:01:16;;;;;;;39.83;20.40;;;4.40;87.60;;;;;;5056047;28;21031;-47
2022/03/13 05:03:43;;;;;;;52.37;20.20;;;4.50;87.10;;;;;;5060814;28;21134;-47
2022/03/13 05:06:09;;;;;;;35.70;19.60;;;4.70;86.60;;;;;;5062583;28;20490;-47
2022/03/13 05:08:36;;;;;;;30.97;18.80;;;4.80;86.30;;;;;;5060168;28;20478;-47
2022/03/13 05:11:05;;;;;;;34.73;20.10;;;4.90;86.30;;;;;;5065088;28;20893;-47
2022/03/13 05:13:33;;;;;;;33.60;20.23;;;5.00;86.30;;;;;;5060612;28;20512;-50
2022/03/13 05:16:00;;;;;;;35.00;19.50;;;5.10;86.40;;;;;;5062259;28;20948;-46
2022/03/13 05:18:27;;;;;;;27.60;18.53;;;5.10;86.00;;;;;;5060400;28;20498;-47
2022/03/13 05:20:54;;;;;;;37.50;20.07;;;5.10;86.00;;;;;;5053750;28;20490;-47
2022/03/13 05:23:20;;;;;;;34.93;20.03;;;5.10;85.90;;;;;;5069826;28;20486;-47
2022/03/13 05:25:47;;;;;;;30.90;18.87;;;5.20;86.10;;;;;;5061042;28;20491;-47
2022/03/13 05:28:15;;;;;;;33.63;18.30;;;5.20;86.30;;;;;;5057256;28;20475;-46
2022/03/13 05:30:43;;;;;;;28.03;19.00;;;5.30;86.30;;;;;;5059715;28;20472;-45
2022/03/13 05:33:10;;;;;;;50.17;20.87;;;5.30;86.30;;;;;;5061816;28;20607;-46
2022/03/13 05:35:37;;;;;;;32.20;21.00;;;5.30;86.60;;;;;;5062050;28;20488;-47
2022/03/13 05:38:04;;;;;;;34.30;19.30;;;5.30;87.20;;;;;;5065457;28;20472;-46
2022/03/13 05:40:33;;;;;;;58.53;22.73;;;5.30;87.30;;;;;;5053676;28;20476;-45
2022/03/13 05:42:59;;;;;;;32.87;21.80;;;5.40;87.10;;;;;;5066232;28;20483;-45
2022/03/13 05:45:28;;;;;;;46.27;25.90;;;5.40;87.10;;;;;;5058780;28;20491;-45
2022/03/13 05:47:58;;;;;;;48.80;26.30;;;5.50;86.70;;;;;;5059117;28;20479;-45
2022/03/13 05:50:27;;;;;;;45.60;26.77;;;5.50;86.90;;;;;;5063639;28;20501;-46
2022/03/13 05:52:55;;;;;;;43.03;25.10;;;5.50;87.10;;;;;;5061212;28;20556;-45
2022/03/13 05:55:25;;;;;;;52.33;27.17;;;5.40;87.50;;;;;;5056472;28;20491;-46
2022/03/13 05:57:53;;;;;;;34.97;22.93;;;5.50;87.40;;;;;;5060168;28;20533;-46
2022/03/13 06:00:22;;;;;;;37.70;22.10;;;5.50;87.30;;;;;;5060368;28;20570;-46
2022/03/13 06:02:49;;;;;;;38.90;22.90;;;5.50;87.30;;;;;;5060999;28;20482;-46
2022/03/13 06:05:18;;;;;;;38.77;25.43;;;5.50;87.40;;;;;;5063799;28;20551;-46
2022/03/13 06:07:46;;;;;;;37.83;24.30;;;5.60;87.80;;;;;;5062421;28;20497;-46
2022/03/13 06:10:13;;;;;;;36.30;23.07;;;5.50;88.20;;;;;;5060341;28;20484;-48
2022/03/13 06:12:40;;;;;;;32.60;21.33;;;5.40;88.40;;;;;;5061951;28;20989;-47
2022/03/13 06:15:09;;;;;;;45.17;21.57;;;5.50;88.10;;;;;;5059367;28;20891;-47
2022/03/13 06:17:40;;;;;;;35.60;21.70;;;5.50;87.80;;;;;;5061285;28;20912;-48
2022/03/13 06:20:10;;;;;;;34.17;22.00;;;5.60;87.90;;;;;;5055468;28;20490;-45
2022/03/13 06:22:38;;;;;;;37.03;22.33;;;5.70;88.30;;;;;;5063444;28;20644;-48
2022/03/13 06:25:07;;;;;;;43.70;22.87;;;5.70;87.90;;;;;;5063060;28;21188;-45
2022/03/13 06:27:34;;;;;;;35.17;22.90;;;5.80;87.50;;;;;;5058703;28;20474;-46
2022/03/13 06:30:11;;;;;;;43.57;24.97;;;5.80;87.70;;;;;;5055166;28;20475;-45
2022/03/13 06:32:38;;;;;;;47.00;23.40;;;5.80;88.00;;;;;;5033663;28;20529;-47
2022/03/13 06:35:05;;;;;;;39.13;23.00;;;5.90;87.90;;;;;;5054599;28;20483;-46
2022/03/13 06:37:32;;;;;;;33.97;22.30;;;5.90;87.50;;;;;;5064674;28;21062;-46
2022/03/13 06:40:01;;;;;;;36.63;21.87;;;5.90;87.20;;;;;;5055787;28;20490;-46
2022/03/13 06:42:28;;;;;;;52.80;25.37;;;5.90;86.90;;;;;;5060656;28;20579;-46
2022/03/13 06:44:55;;;;;;;33.00;21.20;;;5.90;87.10;;;;;;5060700;28;20565;-46
2022/03/13 06:47:23;;;;;;;34.73;23.40;;;5.90;86.90;;;;;;5056646;28;20908;-46
2022/03/13 06:49:49;;;;;;;43.27;22.33;;;5.90;87.10;;;;;;5048887;28;20485;-46
2022/03/13 06:52:16;;;;;;;38.40;21.43;;;5.90;87.10;;;;;;5072886;28;20483;-46
2022/03/13 06:54:43;;;;;;;30.57;20.50;;;6.00;86.80;;;;;;5058600;28;20540;-46
2022/03/13 06:57:13;;;;;;;44.13;23.20;;;6.00;86.80;;;;;;5056456;28;20490;-46
2022/03/13 06:59:40;;;;;;;34.57;19.70;;;6.00;86.80;;;;;;5050598;28;20493;-46
2022/03/13 07:02:07;;;;;;;36.70;22.47;;;6.00;86.50;;;;;;5064113;28;20486;-46
2022/03/13 07:04:34;;;;;;;47.03;21.30;;;6.10;86.70;;;;;;5060824;28;20510;-47
2022/03/13 07:07:01;;;;;;;30.20;20.10;;;6.10;86.80;;;;;;5054828;28;20748;-47
2022/03/13 07:09:28;;;;;;;34.03;22.20;;;6.10;86.70;;;;;;5066480;28;20479;-47
2022/03/13 07:11:54;;;;;;;37.87;21.40;;;6.30;87.50;;;;;;5060444;28;20561;-47
2022/03/13 07:14:22;;;;;;;33.10;19.63;;;6.60;88.40;;;;;;5058845;28;20557;-47
2022/03/13 07:16:49;;;;;;;34.17;22.57;;;7.10;90.10;;;;;;5059124;28;20475;-46
2022/03/13 07:19:16;;;;;;;40.00;24.20;;;7.50;87.60;;;;;;5059218;28;21062;-47
2022/03/13 07:21:43;;;;;;;30.57;20.57;;;7.70;86.10;;;;;;5063016;28;20491;-47
2022/03/13 07:24:11;;;;;;;29.13;21.00;;;7.90;86.00;;;;;;5064596;28;20479;-47
2022/03/13 07:26:38;;;;;;;31.60;19.67;;;8.10;85.20;;;;;;5061600;28;20919;-48
2022/03/13 07:29:04;;;;;;;36.60;20.80;;;8.30;84.50;;;;;;5061325;28;20552;-47
2022/03/13 07:31:32;;;;;;;31.33;21.63;;;8.50;84.50;;;;;;5070962;28;20498;-50
2022/03/13 07:34:00;;;;;;;33.70;21.30;;;8.40;83.20;;;;;;5058818;28;20493;-47
2022/03/13 07:36:27;;;;;;;31.17;21.43;;;8.20;83.00;;;;;;5063239;28;20980;-47
2022/03/13 07:38:54;;;;;;;31.87;21.50;;;8.30;83.60;;;;;;5054998;28;20923;-46
2022/03/13 07:41:20;;;;;;;34.77;19.77;;;9.00;86.20;;;;;;5054483;28;20550;-47
2022/03/13 07:43:47;;;;;;;36.37;22.17;;;9.50;84.70;;;;;;5064931;28;20492;-47
2022/03/13 07:46:14;;;;;;;39.27;26.00;;;10.20;84.00;;;;;;5058798;28;20487;-47
2022/03/13 07:48:44;;;;;;;40.03;24.33;;;11.20;81.70;;;;;;5071027;28;20546;-48
2022/03/13 07:51:11;;;;;;;33.17;22.00;;;11.30;82.20;;;;;;5064019;28;20472;-48
2022/03/13 07:53:38;;;;;;;28.33;19.60;;;12.10;81.30;;;;;;5056055;28;20483;-48
2022/03/13 07:56:05;;;;;;;29.50;19.30;;;13.60;77.70;;;;;;5063153;28;20558;-48
2022/03/13 07:58:32;;;;;;;25.83;18.80;;;13.70;78.00;;;;;;5065588;28;20492;-49
2022/03/13 08:00:59;;;;;;;30.60;19.77;;;14.60;77.70;;;;;;5060870;28;20569;-48
2022/03/13 08:03:35;;;;;;;29.90;20.70;;;15.90;72.30;;;;;;5065603;28;20518;-48
2022/03/13 08:06:03;;;;;;;27.50;18.77;;;15.90;72.20;;;;;;5061953;28;20495;-48
2022/03/13 08:08:30;;;;;;;30.07;19.07;;;15.70;68.80;;;;;;5031946;28;20481;-48
2022/03/13 08:10:57;;;;;;;26.13;18.33;;;15.70;69.30;;;;;;5061340;28;20572;-48
2022/03/13 08:13:24;;;;;;;26.63;18.87;;;15.70;70.20;;;;;;5052343;28;20469;-48
2022/03/13 08:15:51;;;;;;;32.23;18.60;;;15.80;69.00;;;;;;5061187;28;20546;-48
2022/03/13 08:18:18;;;;;;;26.23;18.53;;;15.80;69.70;;;;;;5064016;28;20481;-48
2022/03/13 08:20:44;;;;;;;26.00;19.23;;;16.00;69.50;;;;;;5060199;28;20550;-48
2022/03/13 08:23:12;;;;;;;27.87;20.27;;;16.00;68.00;;;;;;5062690;28;20481;-47
2022/03/13 08:25:39;;;;;;;26.80;19.23;;;16.10;67.90;;;;;;5063701;28;20479;-48
2022/03/13 08:28:06;;;;;;;34.33;23.73;;;16.20;66.80;;;;;;5063803;28;20475;-48
2022/03/13 08:30:33;;;;;;;26.63;19.60;;;16.10;66.00;;;;;;5057185;28;20489;-48
2022/03/13 08:33:00;;;;;;;33.87;24.03;;;16.20;66.90;;;;;;5058481;28;20489;-47
2022/03/13 08:35:27;;;;;;;27.50;19.47;;;16.20;65.80;;;;;;5059198;28;21083;-47
2022/03/13 08:37:55;;;;;;;27.50;19.37;;;16.20;67.30;;;;;;5062319;28;21078;-48
2022/03/13 08:40:25;;;;;;;27.73;20.10;;;16.20;66.00;;;;;;5052193;28;20481;-49
2022/03/13 08:42:52;;;;;;;27.03;19.90;;;16.20;66.20;;;;;;5070352;28;20564;-48
2022/03/13 08:45:18;;;;;;;38.53;21.07;;;16.20;66.50;;;;;;5069024;28;20493;-48
2022/03/13 08:47:46;;;;;;;26.30;18.60;;;16.20;66.70;;;;;;5061290;28;20539;-48
2022/03/13 08:50:14;;;;;;;23.00;18.17;;;16.20;66.90;;;;;;5065738;28;20896;-49
2022/03/13 08:52:41;;;;;;;29.80;19.87;;;16.30;66.30;;;;;;5059275;28;20513;-48
2022/03/13 08:55:13;;;;;;;23.50;19.33;;;16.30;67.10;;;;;;5063352;28;21095;-49
2022/03/13 08:57:42;;;;;;;27.97;20.33;;;16.40;65.70;;;;;;5060093;28;21074;-49
2022/03/13 09:00:10;;;;;;;30.33;20.57;;;16.50;66.50;;;;;;5071748;28;20935;-49
2022/03/13 09:02:37;;;;;;;35.60;21.40;;;16.50;67.20;;;;;;5062837;28;20478;-49
2022/03/13 09:05:04;;;;;;;29.87;20.40;;;16.80;66.00;;;;;;5061779;28;20487;-49
2022/03/13 09:07:31;;;;;;;30.70;20.00;;;16.90;64.60;;;;;;5061476;28;20474;-48
2022/03/13 09:09:58;;;;;;;36.40;22.33;;;16.90;65.30;;;;;;5059046;28;20486;-49
2022/03/13 09:12:25;;;;;;;28.87;19.67;;;17.10;65.60;;;;;;5067511;28;20825;-47
2022/03/13 09:14:53;;;;;;;28.77;19.00;;;17.30;64.20;;;;;;5061271;28;21038;-47
2022/03/13 09:17:19;;;;;;;30.87;21.63;;;16.70;58.00;;;;;;5062839;28;20479;-47
2022/03/13 09:19:46;;;;;;;29.93;21.00;;;16.60;60.10;;;;;;5058255;28;20486;-47
2022/03/13 09:22:14;;;;;;;33.47;18.50;;;16.10;59.50;;;;;;5061526;28;20535;-48
2022/03/13 09:24:41;;;;;;;35.10;20.50;;;16.20;65.20;;;;;;5062843;28;20848;-48
2022/03/13 09:27:07;;;;;;;29.17;19.77;;;16.40;66.20;;;;;;5061176;28;20510;-49
2022/03/13 09:29:34;;;;;;;33.30;20.00;;;16.50;63.00;;;;;;5059652;28;20479;-48
2022/03/13 09:32:02;;;;;;;30.40;21.30;;;16.80;67.20;;;;;;5061725;28;20987;-48
2022/03/13 09:34:29;;;;;;;28.10;19.63;;;17.10;65.70;;;;;;5061900;28;20482;-48
2022/03/13 09:36:56;;;;;;;27.60;21.30;;;17.60;65.80;;;;;;5060560;28;20479;-48
2022/03/13 09:39:25;;;;;;;31.20;21.90;;;17.80;65.30;;;;;;5060664;28;20567;-48
2022/03/13 09:41:52;;;;;;;33.33;21.83;;;18.20;65.10;;;;;;5060481;28;20594;-48
2022/03/13 09:44:20;;;;;;;29.60;20.37;;;18.10;65.60;;;;;;5064844;28;20507;-48
2022/03/13 09:46:47;;;;;;;30.53;20.60;;;18.30;65.40;;;;;;5060917;28;20564;-48
2022/03/13 09:49:16;;;;;;;32.00;20.23;;;18.50;61.50;;;;;;5060003;28;20952;-48
2022/03/13 09:51:43;;;;;;;32.23;20.20;;;18.50;62.10;;;;;;5061008;28;20822;-48
2022/03/13 09:54:10;;;;;;;30.80;20.47;;;18.50;63.60;;;;;;5066751;28;20479;-48
2022/03/13 09:56:37;;;;;;;31.53;20.63;;;18.60;64.00;;;;;;5060505;28;20460;-50
2022/03/13 09:59:04;;;;;;;26.87;20.37;;;18.50;64.50;;;;;;5059104;28;21165;-48
2022/03/13 10:01:31;;;;;;;29.03;20.50;;;18.20;58.50;;;;;;5055842;28;20490;-49
2022/03/13 10:03:58;;;;;;;27.40;18.70;;;17.70;59.50;;;;;;5060969;28;20482;-49
2022/03/13 10:06:26;;;;;;;27.57;20.43;;;17.50;65.20;;;;;;5062277;28;20569;-49
2022/03/13 10:08:53;;;;;;;27.77;19.40;;;17.70;65.90;;;;;;5059174;28;20479;-49
2022/03/13 10:11:32;;;;;;;27.83;18.83;;;17.50;58.70;;;;;;5057693;28;20564;-48
2022/03/13 10:14:07;;;;;;;29.23;18.50;;;17.50;60.90;;;;;;5056195;28;21102;-48
2022/03/13 10:16:37;;;;;;;30.00;19.20;;;17.30;61.70;;;;;;5060147;28;20504;-48
2022/03/13 10:19:14;;;;;;;30.70;21.27;;;17.50;62.30;;;;;;5058797;28;20483;-48
2022/03/13 10:22:00;;;;;;;30.70;20.40;;;17.20;60.60;;;;;;5056947;28;20984;-48
2022/03/13 10:24:27;;;;;;;27.83;18.97;;;17.20;63.60;;;;;;5047805;28;21066;-47
2022/03/13 10:27:08;;;;;;;27.70;18.47;;;17.40;63.70;;;;;;5059281;28;20482;-57
2022/03/13 10:29:35;;;;;;;19.97;14.47;;;17.20;62.10;;;;;;5057896;28;20485;-49
2022/03/13 10:32:02;;;;;;;30.20;21.47;;;16.20;60.90;;;;;;5057623;28;20479;-50
2022/03/13 10:34:29;;;;;;;29.97;20.33;;;16.00;64.00;;;;;;5059542;28;20482;-49
2022/03/13 10:36:57;;;;;;;26.27;21.63;;;16.00;64.30;;;;;;5048416;28;20556;-49
2022/03/13 10:39:24;;;;;;;33.23;20.97;;;16.00;64.30;;;;;;5065893;28;20474;-49
2022/03/13 10:41:56;;;;;;;28.53;20.07;;;16.10;62.80;;;;;;5031951;28;20475;-49
2022/03/13 10:44:25;;;;;;;35.90;19.17;;;15.90;62.60;;;;;;5061464;28;20997;-49
2022/03/13 10:46:55;;;;;;;29.20;17.93;;;15.90;62.60;;;;;;5058749;28;20620;-49
2022/03/13 10:49:43;;;;;;;27.50;16.13;;;16.00;64.90;;;;;;5058452;28;20478;-49
2022/03/13 10:52:29;;;;;;;29.13;17.77;;;16.00;63.60;;;;;;5060049;28;20475;-49
2022/03/13 10:54:57;;;;;;;29.43;20.00;;;15.90;64.00;;;;;;5049279;28;20477;-50
2022/03/13 10:57:25;;;;;;;28.17;22.00;;;15.90;65.60;;;;;;5064226;28;20470;-49
2022/03/13 11:00:09;;;;;;;32.13;18.83;;;15.80;65.70;;;;;;5058792;28;21045;-49
2022/03/13 11:02:36;;;;;;;29.60;18.80;;;15.70;65.00;;;;;;5049328;28;21392;-49
2022/03/13 11:05:04;;;;;;;38.53;18.83;;;15.70;65.60;;;;;;5063371;28;20470;-50
2022/03/13 11:07:33;;;;;;;30.97;20.00;;;15.80;66.50;;;;;;5060977;28;20486;-49
2022/03/13 11:10:00;;;;;;;33.93;16.83;;;15.80;64.60;;;;;;5061705;28;21054;-49
2022/03/13 11:12:28;;;;;;;32.20;21.13;;;15.80;64.50;;;;;;5050058;28;20501;-56
2022/03/13 11:14:56;;;;;;;21.63;11.23;;;15.70;63.90;;;;;;5059872;28;20475;-48
2022/03/13 11:17:25;;;;;;;31.87;22.20;;;;;;;;;;5060567;28;20467;-49
2022/03/13 11:19:54;;;;;;;31.17;21.40;;;15.50;65.30;;;;;;5058805;28;20470;-49
2022/03/13 11:22:22;;;;;;;34.07;19.70;;;15.50;64.60;;;;;;5053212;28;20855;-49
2022/03/13 11:24:51;;;;;;;43.50;22.23;;;15.60;64.80;;;;;;5069817;28;20466;-49
2022/03/13 11:27:18;;;;;;;30.90;19.47;;;15.90;66.00;;;;;;5059917;28;20467;-48
2022/03/13 11:29:46;;;;;;;31.20;15.67;;;16.10;63.70;;;;;;5055882;28;20953;-48
2022/03/13 11:32:34;;;;;;;31.90;19.47;;;16.50;64.50;;;;;;5055782;28;21353;-48
2022/03/13 11:35:29;;;;;;;32.27;21.17;;;16.50;63.80;;;;;;5059461;28;20470;-49
2022/03/13 11:38:17;;;;;;;35.33;20.40;;;16.60;62.90;;;;;;5059247;28;20477;-48
2022/03/13 11:40:45;;;;;;;35.20;21.03;;;16.60;63.60;;;;;;5055705;28;20620;-48
2022/03/13 11:43:13;;;;;;;29.17;20.47;;;16.70;65.10;;;;;;5057696;28;20487;-48
2022/03/13 11:45:42;;;;;;;26.90;18.27;;;16.70;63.30;;;;;;5055475;28;21023;-49
2022/03/13 11:48:41;;;;;;;32.20;20.77;;;16.70;62.50;;;;;;5069989;28;20467;-48
2022/03/13 11:51:08;;;;;;;33.90;20.80;;;16.50;63.50;;;;;;5053047;28;21217;-49
2022/03/13 11:53:49;;;;;;;31.60;19.90;;;16.40;64.20;;;;;;5058992;28;20487;-49
2022/03/13 11:56:28;;;;;;;29.37;18.93;;;16.40;63.10;;;;;;5059451;28;20486;-48
2022/03/13 11:58:57;;;;;;;26.40;17.90;;;16.40;63.30;;;;;;5058263;28;20471;-49
2022/03/13 12:01:36;;;;;;;31.97;19.40;;;16.40;65.40;;;;;;5060217;28;20482;-48
2022/03/13 12:04:25;;;;;;;31.40;19.80;;;16.60;63.80;;;;;;5047902;28;20479;-49
2022/03/13 12:06:56;;;;;;;40.93;20.73;;;16.80;65.60;;;;;;5059446;28;20615;-51
2022/03/13 12:09:29;;;;;;;30.20;18.07;;;16.90;63.00;;;;;;5059777;28;20500;-48
2022/03/13 12:12:06;;;;;;;25.83;13.27;;;17.00;63.90;;;;;;5062171;28;20485;-48
2022/03/13 12:14:53;;;;;;;32.50;19.47;;;17.10;64.40;;;;;;5051298;28;20483;-50
2022/03/13 12:17:20;;;;;;;30.77;18.40;;;17.20;63.00;;;;;;5063696;28;21020;-48
2022/03/13 12:19:47;;;;;;;28.90;19.20;;;17.40;64.50;;;;;;5060181;28;21008;-48
2022/03/13 12:22:15;;;;;;;28.33;17.90;;;17.60;64.40;;;;;;5057794;28;20489;-49
2022/03/13 12:24:49;;;;;;;28.87;17.30;;;17.80;65.00;;;;;;5070466;28;21013;-48
2022/03/13 12:27:18;;;;;;;25.50;18.10;;;17.70;61.10;;;;;;5062873;28;20507;-48
2022/03/13 12:29:55;;;;;;;27.00;18.80;;;17.40;60.20;;;;;;5062919;28;20483;-48
2022/03/13 12:32:23;;;;;;;26.60;15.97;;;17.30;62.70;;;;;;5045988;28;20485;-48
2022/03/13 12:34:54;;;;;;;29.63;18.70;;;17.20;61.80;;;;;;5065125;28;20486;-48
2022/03/13 12:37:20;;;;;;;27.87;17.20;;;17.30;62.40;;;;;;5061158;28;20479;-48
2022/03/13 12:39:51;;;;;;;29.47;17.33;;;17.30;62.50;;;;;;5053976;28;20533;-48
2022/03/13 12:42:24;;;;;;;26.23;15.10;;;17.30;62.20;;;;;;5059094;28;21207;-49